sensor_id;sensor_type;location;lat;lon;timestamp;P1;durP1;ratioP1;P2;durP2;ratioP2
75496;SDS011;64074;47.540;19.072;2022-11-20T00:00:45;25.67;;;11.05;;
75496;SDS011;64074;47.540;19.072;2022-11-20T00:03:48;28.75;;;11.80;;
75496;SDS011;64074;47.540;19.072;2022-11-20T00:06:53;28.07;;;11.50;;
75496;SDS011;64074;47.540;19.072;2022-11-20T00:09:56;25.98;;;10.98;;
75496;SDS011;64074;47.540;19.072;2022-11-20T00:12:59;29.10;;;11.52;;
75496;SDS011;64074;47.540;19.072;2022-11-20T00:16:03;29.30;;;11.32;;
75496;SDS011;64074;47.540;19.072;2022-11-20T00:19:07;28.55;;;10.45;;
75496;SDS011;64074;47.540;19.072;2022-11-20T00:22:10;26.03;;;10.30;;
75496;SDS011;64074;47.540;19.072;2022-11-20T00:25:13;23.75;;;10.07;;
75496;SDS011;64074;47.540;19.072;2022-11-20T00:28:15;24.52;;;10.18;;
75496;SDS011;64074;47.540;19.072;2022-11-20T00:31:18;23.70;;;9.75;;
75496;SDS011;64074;47.540;19.072;2022-11-20T00:34:22;25.40;;;9.98;;
75496;SDS011;64074;47.540;19.072;2022-11-20T00:37:25;26.27;;;9.97;;
75496;SDS011;64074;47.540;19.072;2022-11-20T00:40:28;24.85;;;10.00;;
75496;SDS011;64074;47.540;19.072;2022-11-20T00:43:31;26.63;;;9.85;;
75496;SDS011;64074;47.540;19.072;2022-11-20T00:46:35;26.10;;;9.68;;
75496;SDS011;64074;47.540;19.072;2022-11-20T00:49:38;24.15;;;10.13;;
75496;SDS011;64074;47.540;19.072;2022-11-20T00:52:41;25.43;;;10.10;;
75496;SDS011;64074;47.540;19.072;2022-11-20T00:56:00;29.02;;;11.20;;
75496;SDS011;64074;47.540;19.072;2022-11-20T00:59:06;26.35;;;10.30;;
75496;SDS011;64074;47.540;19.072;2022-11-20T01:02:11;29.65;;;11.75;;
75496;SDS011;64074;47.540;19.072;2022-11-20T01:05:15;29.85;;;10.75;;
75496;SDS011;64074;47.540;19.072;2022-11-20T01:08:17;30.20;;;12.20;;
75496;SDS011;64074;47.540;19.072;2022-11-20T01:11:27;34.20;;;12.15;;
75496;SDS011;64074;47.540;19.072;2022-11-20T01:14:35;30.10;;;11.90;;
75496;SDS011;64074;47.540;19.072;2022-11-20T01:17:38;30.77;;;11.85;;
75496;SDS011;64074;47.540;19.072;2022-11-20T01:20:41;32.97;;;13.02;;
75496;SDS011;64074;47.540;19.072;2022-11-20T01:23:44;31.60;;;11.80;;
75496;SDS011;64074;47.540;19.072;2022-11-20T01:26:48;32.30;;;11.07;;
75496;SDS011;64074;47.540;19.072;2022-11-20T01:29:52;34.97;;;12.23;;
75496;SDS011;64074;47.540;19.072;2022-11-20T01:33:02;32.40;;;12.13;;
75496;SDS011;64074;47.540;19.072;2022-11-20T01:36:05;32.50;;;12.73;;
75496;SDS011;64074;47.540;19.072;2022-11-20T01:39:13;33.93;;;12.20;;
75496;SDS011;64074;47.540;19.072;2022-11-20T01:42:27;32.53;;;12.43;;
75496;SDS011;64074;47.540;19.072;2022-11-20T01:49:19;37.85;;;12.75;;
75496;SDS011;64074;47.540;19.072;2022-11-20T01:52:34;36.42;;;12.40;;
75496;SDS011;64074;47.540;19.072;2022-11-20T01:55:49;37.53;;;13.37;;
75496;SDS011;64074;47.540;19.072;2022-11-20T01:58:56;39.33;;;13.23;;
75496;SDS011;64074;47.540;19.072;2022-11-20T02:02:03;36.38;;;12.98;;
75496;SDS011;64074;47.540;19.072;2022-11-20T02:05:12;38.22;;;13.52;;
75496;SDS011;64074;47.540;19.072;2022-11-20T02:08:20;36.67;;;13.07;;
75496;SDS011;64074;47.540;19.072;2022-11-20T02:11:25;37.37;;;13.23;;
75496;SDS011;64074;47.540;19.072;2022-11-20T02:14:28;36.67;;;13.25;;
75496;SDS011;64074;47.540;19.072;2022-11-20T02:17:31;38.00;;;13.73;;
75496;SDS011;64074;47.540;19.072;2022-11-20T02:20:34;37.85;;;13.52;;
75496;SDS011;64074;47.540;19.072;2022-11-20T02:23:38;33.33;;;12.88;;
75496;SDS011;64074;47.540;19.072;2022-11-20T02:26:48;36.57;;;13.67;;
75496;SDS011;64074;47.540;19.072;2022-11-20T02:29:59;32.65;;;12.18;;
75496;SDS011;64074;47.540;19.072;2022-11-20T02:33:04;39.58;;;12.98;;
75496;SDS011;64074;47.540;19.072;2022-11-20T02:36:08;33.22;;;12.13;;
75496;SDS011;64074;47.540;19.072;2022-11-20T02:39:16;33.53;;;12.75;;
75496;SDS011;64074;47.540;19.072;2022-11-20T02:42:20;34.90;;;12.37;;
75496;SDS011;64074;47.540;19.072;2022-11-20T02:45:23;35.10;;;13.20;;
75496;SDS011;64074;47.540;19.072;2022-11-20T02:48:27;33.00;;;12.95;;
75496;SDS011;64074;47.540;19.072;2022-11-20T02:51:34;35.05;;;12.73;;
75496;SDS011;64074;47.540;19.072;2022-11-20T02:54:37;34.05;;;12.75;;
75496;SDS011;64074;47.540;19.072;2022-11-20T02:57:40;34.80;;;13.03;;
75496;SDS011;64074;47.540;19.072;2022-11-20T03:00:44;36.15;;;13.15;;
75496;SDS011;64074;47.540;19.072;2022-11-20T03:03:47;33.00;;;13.15;;
75496;SDS011;64074;47.540;19.072;2022-11-20T03:06:51;34.15;;;13.10;;
75496;SDS011;64074;47.540;19.072;2022-11-20T03:09:54;36.15;;;13.32;;
75496;SDS011;64074;47.540;19.072;2022-11-20T03:12:56;33.33;;;13.07;;
75496;SDS011;64074;47.540;19.072;2022-11-20T03:16:04;33.00;;;12.30;;
75496;SDS011;64074;47.540;19.072;2022-11-20T03:19:08;31.45;;;12.68;;
75496;SDS011;64074;47.540;19.072;2022-11-20T03:22:11;31.02;;;11.98;;
75496;SDS011;64074;47.540;19.072;2022-11-20T03:25:15;31.05;;;11.90;;
75496;SDS011;64074;47.540;19.072;2022-11-20T03:28:18;33.90;;;12.93;;
75496;SDS011;64074;47.540;19.072;2022-11-20T03:31:22;30.67;;;11.65;;
75496;SDS011;64074;47.540;19.072;2022-11-20T03:34:30;33.03;;;12.98;;
75496;SDS011;64074;47.540;19.072;2022-11-20T03:37:33;34.85;;;13.27;;
75496;SDS011;64074;47.540;19.072;2022-11-20T03:40:36;27.92;;;12.77;;
75496;SDS011;64074;47.540;19.072;2022-11-20T03:43:40;31.97;;;12.70;;
75496;SDS011;64074;47.540;19.072;2022-11-20T03:46:43;31.05;;;12.80;;
75496;SDS011;64074;47.540;19.072;2022-11-20T03:49:46;33.53;;;12.85;;
75496;SDS011;64074;47.540;19.072;2022-11-20T03:52:49;31.38;;;11.98;;
75496;SDS011;64074;47.540;19.072;2022-11-20T03:55:51;31.45;;;13.10;;
75496;SDS011;64074;47.540;19.072;2022-11-20T03:58:58;33.37;;;12.37;;
75496;SDS011;64074;47.540;19.072;2022-11-20T04:02:01;29.50;;;12.70;;
75496;SDS011;64074;47.540;19.072;2022-11-20T04:05:04;31.90;;;13.07;;
75496;SDS011;64074;47.540;19.072;2022-11-20T04:08:08;32.55;;;13.38;;
75496;SDS011;64074;47.540;19.072;2022-11-20T04:11:15;34.78;;;13.95;;
75496;SDS011;64074;47.540;19.072;2022-11-20T04:14:20;32.60;;;13.03;;
75496;SDS011;64074;47.540;19.072;2022-11-20T04:17:23;33.90;;;13.50;;
75496;SDS011;64074;47.540;19.072;2022-11-20T04:20:26;32.70;;;13.35;;
75496;SDS011;64074;47.540;19.072;2022-11-20T04:23:30;32.92;;;12.73;;
75496;SDS011;64074;47.540;19.072;2022-11-20T04:26:32;34.95;;;12.10;;
75496;SDS011;64074;47.540;19.072;2022-11-20T04:29:35;31.40;;;12.73;;
75496;SDS011;64074;47.540;19.072;2022-11-20T04:32:38;33.42;;;13.48;;
75496;SDS011;64074;47.540;19.072;2022-11-20T04:35:41;31.48;;;12.10;;
75496;SDS011;64074;47.540;19.072;2022-11-20T04:38:45;31.75;;;12.65;;
75496;SDS011;64074;47.540;19.072;2022-11-20T04:41:55;30.13;;;12.73;;
75496;SDS011;64074;47.540;19.072;2022-11-20T04:45:16;31.10;;;12.30;;
75496;SDS011;64074;47.540;19.072;2022-11-20T04:48:20;31.00;;;13.05;;
75496;SDS011;64074;47.540;19.072;2022-11-20T04:51:23;32.75;;;13.32;;
75496;SDS011;64074;47.540;19.072;2022-11-20T04:54:30;33.30;;;12.52;;
75496;SDS011;64074;47.540;19.072;2022-11-20T04:57:33;33.42;;;12.70;;
75496;SDS011;64074;47.540;19.072;2022-11-20T05:00:36;31.67;;;12.57;;
75496;SDS011;64074;47.540;19.072;2022-11-20T05:03:40;32.70;;;12.85;;
75496;SDS011;64074;47.540;19.072;2022-11-20T05:06:44;32.00;;;13.00;;
75496;SDS011;64074;47.540;19.072;2022-11-20T05:09:47;32.13;;;13.45;;
75496;SDS011;64074;47.540;19.072;2022-11-20T05:12:50;35.33;;;13.30;;
75496;SDS011;64074;47.540;19.072;2022-11-20T05:15:52;30.80;;;12.93;;
75496;SDS011;64074;47.540;19.072;2022-11-20T05:18:55;33.35;;;13.52;;
75496;SDS011;64074;47.540;19.072;2022-11-20T05:21:58;33.00;;;12.75;;
75496;SDS011;64074;47.540;19.072;2022-11-20T05:25:00;32.90;;;13.88;;
75496;SDS011;64074;47.540;19.072;2022-11-20T05:28:03;35.70;;;14.23;;
75496;SDS011;64074;47.540;19.072;2022-11-20T05:31:10;35.50;;;13.40;;
75496;SDS011;64074;47.540;19.072;2022-11-20T05:34:27;36.47;;;13.93;;
75496;SDS011;64074;47.540;19.072;2022-11-20T05:37:29;35.05;;;13.65;;
75496;SDS011;64074;47.540;19.072;2022-11-20T05:40:32;30.88;;;12.63;;
75496;SDS011;64074;47.540;19.072;2022-11-20T05:43:34;33.42;;;12.88;;
75496;SDS011;64074;47.540;19.072;2022-11-20T05:46:39;31.03;;;12.70;;
75496;SDS011;64074;47.540;19.072;2022-11-20T05:49:41;31.52;;;12.10;;
75496;SDS011;64074;47.540;19.072;2022-11-20T05:52:44;31.42;;;12.48;;
75496;SDS011;64074;47.540;19.072;2022-11-20T05:55:55;27.90;;;11.88;;
75496;SDS011;64074;47.540;19.072;2022-11-20T05:58:59;30.85;;;12.18;;
75496;SDS011;64074;47.540;19.072;2022-11-20T06:02:02;31.63;;;12.97;;
75496;SDS011;64074;47.540;19.072;2022-11-20T06:05:06;30.88;;;12.20;;
75496;SDS011;64074;47.540;19.072;2022-11-20T06:08:09;30.77;;;11.68;;
75496;SDS011;64074;47.540;19.072;2022-11-20T06:11:12;31.10;;;11.73;;
75496;SDS011;64074;47.540;19.072;2022-11-20T06:14:16;30.70;;;11.35;;
75496;SDS011;64074;47.540;19.072;2022-11-20T06:17:19;26.37;;;11.13;;
75496;SDS011;64074;47.540;19.072;2022-11-20T06:20:24;28.75;;;11.65;;
75496;SDS011;64074;47.540;19.072;2022-11-20T06:23:27;27.75;;;11.80;;
75496;SDS011;64074;47.540;19.072;2022-11-20T06:26:31;27.02;;;10.93;;
75496;SDS011;64074;47.540;19.072;2022-11-20T06:29:34;29.23;;;12.07;;
75496;SDS011;64074;47.540;19.072;2022-11-20T06:32:37;28.60;;;10.80;;
75496;SDS011;64074;47.540;19.072;2022-11-20T06:35:40;28.90;;;11.18;;
75496;SDS011;64074;47.540;19.072;2022-11-20T06:38:43;27.05;;;11.13;;
75496;SDS011;64074;47.540;19.072;2022-11-20T06:41:46;26.45;;;10.70;;
75496;SDS011;64074;47.540;19.072;2022-11-20T06:44:48;27.25;;;11.15;;
75496;SDS011;64074;47.540;19.072;2022-11-20T06:47:52;27.60;;;10.57;;
75496;SDS011;64074;47.540;19.072;2022-11-20T06:50:56;26.85;;;10.85;;
75496;SDS011;64074;47.540;19.072;2022-11-20T06:53:59;26.42;;;10.73;;
75496;SDS011;64074;47.540;19.072;2022-11-20T06:57:03;27.27;;;10.70;;
75496;SDS011;64074;47.540;19.072;2022-11-20T07:00:06;28.38;;;11.55;;
75496;SDS011;64074;47.540;19.072;2022-11-20T07:03:11;24.17;;;10.83;;
75496;SDS011;64074;47.540;19.072;2022-11-20T07:06:17;27.63;;;10.60;;
75496;SDS011;64074;47.540;19.072;2022-11-20T07:09:20;24.70;;;10.15;;
75496;SDS011;64074;47.540;19.072;2022-11-20T07:12:23;29.80;;;10.93;;
75496;SDS011;64074;47.540;19.072;2022-11-20T07:15:26;23.02;;;9.60;;
75496;SDS011;64074;47.540;19.072;2022-11-20T07:18:29;25.00;;;9.90;;
75496;SDS011;64074;47.540;19.072;2022-11-20T07:21:31;26.80;;;10.60;;
75496;SDS011;64074;47.540;19.072;2022-11-20T07:24:34;26.00;;;10.38;;
75496;SDS011;64074;47.540;19.072;2022-11-20T07:27:37;25.95;;;10.00;;
75496;SDS011;64074;47.540;19.072;2022-11-20T07:30:40;27.25;;;10.60;;
75496;SDS011;64074;47.540;19.072;2022-11-20T07:33:43;25.10;;;10.13;;
75496;SDS011;64074;47.540;19.072;2022-11-20T07:36:46;23.90;;;10.27;;
75496;SDS011;64074;47.540;19.072;2022-11-20T07:39:49;29.13;;;11.10;;
75496;SDS011;64074;47.540;19.072;2022-11-20T07:42:53;27.58;;;11.55;;
75496;SDS011;64074;47.540;19.072;2022-11-20T07:45:57;26.63;;;10.95;;
75496;SDS011;64074;47.540;19.072;2022-11-20T07:49:01;26.30;;;11.33;;
75496;SDS011;64074;47.540;19.072;2022-11-20T07:52:03;25.80;;;10.38;;
75496;SDS011;64074;47.540;19.072;2022-11-20T07:55:06;26.75;;;11.00;;
75496;SDS011;64074;47.540;19.072;2022-11-20T07:58:10;24.15;;;10.27;;
75496;SDS011;64074;47.540;19.072;2022-11-20T08:01:12;25.52;;;11.02;;
75496;SDS011;64074;47.540;19.072;2022-11-20T08:04:15;26.60;;;10.80;;
75496;SDS011;64074;47.540;19.072;2022-11-20T08:07:18;25.45;;;10.95;;
75496;SDS011;64074;47.540;19.072;2022-11-20T08:10:21;25.23;;;10.70;;
75496;SDS011;64074;47.540;19.072;2022-11-20T08:13:23;25.75;;;10.57;;
75496;SDS011;64074;47.540;19.072;2022-11-20T08:16:45;24.05;;;10.35;;
75496;SDS011;64074;47.540;19.072;2022-11-20T08:19:49;25.20;;;10.90;;
75496;SDS011;64074;47.540;19.072;2022-11-20T08:22:52;25.40;;;10.95;;
75496;SDS011;64074;47.540;19.072;2022-11-20T08:25:59;28.90;;;12.07;;
75496;SDS011;64074;47.540;19.072;2022-11-20T08:29:03;30.38;;;12.52;;
75496;SDS011;64074;47.540;19.072;2022-11-20T08:32:07;26.63;;;11.98;;
75496;SDS011;64074;47.540;19.072;2022-11-20T08:35:10;30.93;;;13.23;;
75496;SDS011;64074;47.540;19.072;2022-11-20T08:38:12;27.52;;;12.48;;
75496;SDS011;64074;47.540;19.072;2022-11-20T08:41:15;30.25;;;13.13;;
75496;SDS011;64074;47.540;19.072;2022-11-20T08:44:31;29.00;;;12.65;;
75496;SDS011;64074;47.540;19.072;2022-11-20T08:47:33;29.13;;;12.55;;
75496;SDS011;64074;47.540;19.072;2022-11-20T08:50:36;28.57;;;12.13;;
75496;SDS011;64074;47.540;19.072;2022-11-20T08:53:39;30.30;;;12.65;;
75496;SDS011;64074;47.540;19.072;2022-11-20T08:56:43;30.80;;;12.90;;
75496;SDS011;64074;47.540;19.072;2022-11-20T08:59:45;36.55;;;16.77;;
75496;SDS011;64074;47.540;19.072;2022-11-20T09:03:08;29.92;;;13.48;;
75496;SDS011;64074;47.540;19.072;2022-11-20T09:06:11;29.30;;;13.87;;
75496;SDS011;64074;47.540;19.072;2022-11-20T09:09:14;32.03;;;13.77;;
75496;SDS011;64074;47.540;19.072;2022-11-20T09:12:17;32.45;;;14.77;;
75496;SDS011;64074;47.540;19.072;2022-11-20T09:15:19;30.20;;;13.93;;
75496;SDS011;64074;47.540;19.072;2022-11-20T09:18:23;34.40;;;14.52;;
75496;SDS011;64074;47.540;19.072;2022-11-20T09:21:26;33.67;;;13.97;;
75496;SDS011;64074;47.540;19.072;2022-11-20T09:24:29;35.47;;;14.73;;
75496;SDS011;64074;47.540;19.072;2022-11-20T09:27:32;32.65;;;14.30;;
75496;SDS011;64074;47.540;19.072;2022-11-20T09:30:35;28.67;;;13.30;;
75496;SDS011;64074;47.540;19.072;2022-11-20T09:33:38;31.73;;;14.02;;
75496;SDS011;64074;47.540;19.072;2022-11-20T09:36:41;31.00;;;13.93;;
75496;SDS011;64074;47.540;19.072;2022-11-20T09:39:43;32.92;;;14.18;;
75496;SDS011;64074;47.540;19.072;2022-11-20T09:46:14;29.85;;;13.20;;
75496;SDS011;64074;47.540;19.072;2022-11-20T09:56:17;31.65;;;13.05;;
75496;SDS011;64074;47.540;19.072;2022-11-20T09:59:29;30.85;;;13.00;;
75496;SDS011;64074;47.540;19.072;2022-11-20T10:02:44;28.77;;;13.25;;
75496;SDS011;64074;47.540;19.072;2022-11-20T10:06:03;28.23;;;13.35;;
75496;SDS011;64074;47.540;19.072;2022-11-20T10:12:19;29.85;;;13.70;;
75496;SDS011;64074;47.540;19.072;2022-11-20T10:18:48;29.67;;;13.07;;
75496;SDS011;64074;47.540;19.072;2022-11-20T10:31:39;28.00;;;12.27;;
75496;SDS011;64074;47.540;19.072;2022-11-20T10:34:54;28.10;;;13.30;;
75496;SDS011;64074;47.540;19.072;2022-11-20T10:38:05;30.48;;;13.82;;
75496;SDS011;64074;47.540;19.072;2022-11-20T10:41:17;33.70;;;13.27;;
75496;SDS011;64074;47.540;19.072;2022-11-20T10:44:32;27.50;;;12.82;;
75496;SDS011;64074;47.540;19.072;2022-11-20T10:48:08;27.25;;;12.43;;
75496;SDS011;64074;47.540;19.072;2022-11-20T10:51:18;25.95;;;12.07;;
75496;SDS011;64074;47.540;19.072;2022-11-20T10:54:39;29.17;;;13.02;;
75496;SDS011;64074;47.540;19.072;2022-11-20T10:57:57;30.93;;;13.40;;
75496;SDS011;64074;47.540;19.072;2022-11-20T11:01:15;29.95;;;13.40;;
75496;SDS011;64074;47.540;19.072;2022-11-20T11:07:50;26.75;;;12.73;;
75496;SDS011;64074;47.540;19.072;2022-11-20T11:10:57;24.15;;;11.38;;
75496;SDS011;64074;47.540;19.072;2022-11-20T11:14:04;31.43;;;12.97;;
75496;SDS011;64074;47.540;19.072;2022-11-20T11:17:20;30.23;;;13.30;;
75496;SDS011;64074;47.540;19.072;2022-11-20T11:20:40;28.38;;;12.98;;
75496;SDS011;64074;47.540;19.072;2022-11-20T11:24:02;28.98;;;13.30;;
75496;SDS011;64074;47.540;19.072;2022-11-20T11:27:27;29.95;;;13.05;;
75496;SDS011;64074;47.540;19.072;2022-11-20T11:30:40;28.57;;;13.20;;
75496;SDS011;64074;47.540;19.072;2022-11-20T11:33:46;30.25;;;13.80;;
75496;SDS011;64074;47.540;19.072;2022-11-20T11:36:54;32.13;;;14.38;;
75496;SDS011;64074;47.540;19.072;2022-11-20T11:39:59;30.63;;;13.63;;
75496;SDS011;64074;47.540;19.072;2022-11-20T11:43:27;30.38;;;14.38;;
75496;SDS011;64074;47.540;19.072;2022-11-20T11:46:54;31.60;;;14.13;;
75496;SDS011;64074;47.540;19.072;2022-11-20T11:53:14;31.30;;;13.63;;
75496;SDS011;64074;47.540;19.072;2022-11-20T11:56:20;35.38;;;15.23;;
75496;SDS011;64074;47.540;19.072;2022-11-20T11:59:27;32.17;;;13.55;;
75496;SDS011;64074;47.540;19.072;2022-11-20T12:05:55;33.70;;;14.57;;
75496;SDS011;64074;47.540;19.072;2022-11-20T12:09:03;33.20;;;15.68;;
75496;SDS011;64074;47.540;19.072;2022-11-20T12:12:10;41.50;;;15.23;;
75496;SDS011;64074;47.540;19.072;2022-11-20T12:15:24;35.30;;;15.80;;
75496;SDS011;64074;47.540;19.072;2022-11-20T12:18:31;34.03;;;14.00;;
75496;SDS011;64074;47.540;19.072;2022-11-20T12:21:38;30.73;;;14.50;;
75496;SDS011;64074;47.540;19.072;2022-11-20T12:25:08;33.50;;;14.93;;
75496;SDS011;64074;47.540;19.072;2022-11-20T12:34:44;37.03;;;15.67;;
75496;SDS011;64074;47.540;19.072;2022-11-20T12:38:15;34.50;;;15.48;;
75496;SDS011;64074;47.540;19.072;2022-11-20T12:45:22;35.10;;;14.13;;
75496;SDS011;64074;47.540;19.072;2022-11-20T12:55:31;34.08;;;14.82;;
75496;SDS011;64074;47.540;19.072;2022-11-20T13:05:35;34.63;;;15.43;;
75496;SDS011;64074;47.540;19.072;2022-11-20T13:08:41;34.60;;;14.50;;
75496;SDS011;64074;47.540;19.072;2022-11-20T13:12:01;33.17;;;13.95;;
75496;SDS011;64074;47.540;19.072;2022-11-20T13:15:23;30.83;;;13.35;;
75496;SDS011;64074;47.540;19.072;2022-11-20T13:18:35;33.80;;;14.38;;
75496;SDS011;64074;47.540;19.072;2022-11-20T13:21:42;32.42;;;14.40;;
75496;SDS011;64074;47.540;19.072;2022-11-20T13:24:50;32.20;;;13.80;;
75496;SDS011;64074;47.540;19.072;2022-11-20T13:27:55;29.98;;;13.40;;
75496;SDS011;64074;47.540;19.072;2022-11-20T13:30:59;32.25;;;14.10;;
75496;SDS011;64074;47.540;19.072;2022-11-20T13:34:03;32.83;;;14.10;;
75496;SDS011;64074;47.540;19.072;2022-11-20T13:37:23;31.05;;;14.13;;
75496;SDS011;64074;47.540;19.072;2022-11-20T13:40:28;32.93;;;14.60;;
75496;SDS011;64074;47.540;19.072;2022-11-20T13:46:39;34.92;;;14.77;;
75496;SDS011;64074;47.540;19.072;2022-11-20T13:49:47;31.45;;;13.63;;
75496;SDS011;64074;47.540;19.072;2022-11-20T14:00:29;33.47;;;14.23;;
75496;SDS011;64074;47.540;19.072;2022-11-20T14:03:25;31.67;;;13.85;;
75496;SDS011;64074;47.540;19.072;2022-11-20T14:06:53;33.15;;;14.98;;
75496;SDS011;64074;47.540;19.072;2022-11-20T14:09:57;31.42;;;14.10;;
75496;SDS011;64074;47.540;19.072;2022-11-20T14:13:09;32.43;;;13.67;;
75496;SDS011;64074;47.540;19.072;2022-11-20T14:16:18;33.22;;;14.27;;
75496;SDS011;64074;47.540;19.072;2022-11-20T14:19:25;32.85;;;14.40;;
75496;SDS011;64074;47.540;19.072;2022-11-20T14:22:32;33.47;;;14.50;;
75496;SDS011;64074;47.540;19.072;2022-11-20T14:25:35;35.83;;;15.02;;
75496;SDS011;64074;47.540;19.072;2022-11-20T14:28:37;36.50;;;15.03;;
75496;SDS011;64074;47.540;19.072;2022-11-20T14:31:42;33.53;;;14.88;;
75496;SDS011;64074;47.540;19.072;2022-11-20T14:34:53;36.38;;;14.63;;
75496;SDS011;64074;47.540;19.072;2022-11-20T14:37:57;32.42;;;14.32;;
75496;SDS011;64074;47.540;19.072;2022-11-20T14:41:07;32.00;;;14.15;;
75496;SDS011;64074;47.540;19.072;2022-11-20T14:44:11;35.80;;;14.20;;
75496;SDS011;64074;47.540;19.072;2022-11-20T14:47:15;38.03;;;15.23;;
75496;SDS011;64074;47.540;19.072;2022-11-20T14:53:31;38.28;;;15.55;;
75496;SDS011;64074;47.540;19.072;2022-11-20T14:56:34;35.75;;;15.60;;
75496;SDS011;64074;47.540;19.072;2022-11-20T14:59:36;37.30;;;15.77;;
75496;SDS011;64074;47.540;19.072;2022-11-20T15:02:42;35.90;;;15.40;;
75496;SDS011;64074;47.540;19.072;2022-11-20T15:05:47;35.25;;;15.57;;
75496;SDS011;64074;47.540;19.072;2022-11-20T15:08:52;37.15;;;16.45;;
75496;SDS011;64074;47.540;19.072;2022-11-20T15:11:59;39.55;;;16.38;;
75496;SDS011;64074;47.540;19.072;2022-11-20T15:15:04;37.07;;;15.67;;
75496;SDS011;64074;47.540;19.072;2022-11-20T15:18:16;41.20;;;16.73;;
75496;SDS011;64074;47.540;19.072;2022-11-20T15:21:20;37.20;;;15.60;;
75496;SDS011;64074;47.540;19.072;2022-11-20T15:24:23;36.65;;;16.00;;
75496;SDS011;64074;47.540;19.072;2022-11-20T15:27:27;38.80;;;16.45;;
75496;SDS011;64074;47.540;19.072;2022-11-20T15:30:31;40.27;;;16.47;;
75496;SDS011;64074;47.540;19.072;2022-11-20T15:33:34;38.28;;;16.52;;
75496;SDS011;64074;47.540;19.072;2022-11-20T15:36:37;38.72;;;17.40;;
75496;SDS011;64074;47.540;19.072;2022-11-20T15:39:41;39.25;;;15.88;;
75496;SDS011;64074;47.540;19.072;2022-11-20T15:42:43;41.78;;;17.35;;
75496;SDS011;64074;47.540;19.072;2022-11-20T15:46:10;42.90;;;16.73;;
75496;SDS011;64074;47.540;19.072;2022-11-20T15:49:15;40.70;;;16.02;;
75496;SDS011;64074;47.540;19.072;2022-11-20T15:52:21;38.38;;;16.95;;
75496;SDS011;64074;47.540;19.072;2022-11-20T15:55:25;39.17;;;16.45;;
75496;SDS011;64074;47.540;19.072;2022-11-20T15:58:28;37.97;;;17.13;;
75496;SDS011;64074;47.540;19.072;2022-11-20T16:01:31;41.33;;;17.13;;
75496;SDS011;64074;47.540;19.072;2022-11-20T16:04:34;40.47;;;16.60;;
75496;SDS011;64074;47.540;19.072;2022-11-20T16:07:36;41.78;;;17.00;;
75496;SDS011;64074;47.540;19.072;2022-11-20T16:10:39;41.60;;;17.35;;
75496;SDS011;64074;47.540;19.072;2022-11-20T16:13:42;42.42;;;17.50;;
75496;SDS011;64074;47.540;19.072;2022-11-20T16:17:04;41.67;;;17.17;;
75496;SDS011;64074;47.540;19.072;2022-11-20T16:20:10;45.00;;;17.98;;
75496;SDS011;64074;47.540;19.072;2022-11-20T16:23:17;45.67;;;18.60;;
75496;SDS011;64074;47.540;19.072;2022-11-20T16:26:20;44.47;;;17.23;;
75496;SDS011;64074;47.540;19.072;2022-11-20T16:29:23;45.22;;;18.80;;
75496;SDS011;64074;47.540;19.072;2022-11-20T16:32:26;42.53;;;16.57;;
75496;SDS011;64074;47.540;19.072;2022-11-20T16:35:30;44.28;;;18.20;;
75496;SDS011;64074;47.540;19.072;2022-11-20T16:38:33;44.80;;;17.63;;
75496;SDS011;64074;47.540;19.072;2022-11-20T16:41:36;44.63;;;17.33;;
75496;SDS011;64074;47.540;19.072;2022-11-20T16:44:39;42.00;;;17.60;;
75496;SDS011;64074;47.540;19.072;2022-11-20T16:47:41;42.57;;;17.60;;
75496;SDS011;64074;47.540;19.072;2022-11-20T16:50:49;37.30;;;15.73;;
75496;SDS011;64074;47.540;19.072;2022-11-20T16:53:53;41.53;;;16.98;;
75496;SDS011;64074;47.540;19.072;2022-11-20T16:56:57;39.53;;;17.77;;
75496;SDS011;64074;47.540;19.072;2022-11-20T17:00:01;41.10;;;17.42;;
75496;SDS011;64074;47.540;19.072;2022-11-20T17:03:06;40.73;;;17.77;;
75496;SDS011;64074;47.540;19.072;2022-11-20T17:09:19;46.00;;;20.25;;
75496;SDS011;64074;47.540;19.072;2022-11-20T17:12:22;36.08;;;16.17;;
75496;SDS011;64074;47.540;19.072;2022-11-20T17:15:25;40.90;;;17.75;;
75496;SDS011;64074;47.540;19.072;2022-11-20T17:18:27;46.50;;;18.67;;
75496;SDS011;64074;47.540;19.072;2022-11-20T17:21:31;40.83;;;17.75;;
75496;SDS011;64074;47.540;19.072;2022-11-20T17:24:35;37.28;;;17.17;;
75496;SDS011;64074;47.540;19.072;2022-11-20T17:27:39;41.25;;;16.95;;
75496;SDS011;64074;47.540;19.072;2022-11-20T17:30:42;42.80;;;17.27;;
75496;SDS011;64074;47.540;19.072;2022-11-20T17:33:45;39.47;;;17.37;;
75496;SDS011;64074;47.540;19.072;2022-11-20T17:36:49;44.35;;;18.75;;
75496;SDS011;64074;47.540;19.072;2022-11-20T17:39:51;44.85;;;18.73;;
75496;SDS011;64074;47.540;19.072;2022-11-20T17:42:55;40.63;;;16.95;;
75496;SDS011;64074;47.540;19.072;2022-11-20T17:45:58;44.25;;;18.13;;
75496;SDS011;64074;47.540;19.072;2022-11-20T17:49:02;52.20;;;22.57;;
75496;SDS011;64074;47.540;19.072;2022-11-20T17:52:05;66.57;;;26.80;;
75496;SDS011;64074;47.540;19.072;2022-11-20T17:55:09;63.38;;;25.63;;
75496;SDS011;64074;47.540;19.072;2022-11-20T17:58:12;45.40;;;19.70;;
75496;SDS011;64074;47.540;19.072;2022-11-20T18:01:15;49.00;;;20.63;;
75496;SDS011;64074;47.540;19.072;2022-11-20T18:04:19;44.77;;;19.70;;
75496;SDS011;64074;47.540;19.072;2022-11-20T18:07:23;51.22;;;21.38;;
75496;SDS011;64074;47.540;19.072;2022-11-20T18:10:28;49.00;;;20.77;;
75496;SDS011;64074;47.540;19.072;2022-11-20T18:13:31;52.38;;;20.95;;
75496;SDS011;64074;47.540;19.072;2022-11-20T18:16:55;48.78;;;20.20;;
75496;SDS011;64074;47.540;19.072;2022-11-20T18:20:00;49.10;;;21.37;;
75496;SDS011;64074;47.540;19.072;2022-11-20T18:23:22;47.97;;;21.23;;
75496;SDS011;64074;47.540;19.072;2022-11-20T18:26:25;44.83;;;19.60;;
75496;SDS011;64074;47.540;19.072;2022-11-20T18:29:28;43.25;;;19.17;;
75496;SDS011;64074;47.540;19.072;2022-11-20T18:32:35;48.80;;;20.00;;
75496;SDS011;64074;47.540;19.072;2022-11-20T18:35:38;48.43;;;20.53;;
75496;SDS011;64074;47.540;19.072;2022-11-20T18:38:46;46.55;;;19.77;;
75496;SDS011;64074;47.540;19.072;2022-11-20T18:41:51;47.63;;;19.35;;
75496;SDS011;64074;47.540;19.072;2022-11-20T18:45:12;49.35;;;20.60;;
75496;SDS011;64074;47.540;19.072;2022-11-20T18:48:16;45.60;;;19.58;;
75496;SDS011;64074;47.540;19.072;2022-11-20T18:51:19;55.80;;;26.13;;
75496;SDS011;64074;47.540;19.072;2022-11-20T18:54:22;49.00;;;21.25;;
75496;SDS011;64074;47.540;19.072;2022-11-20T18:57:26;57.47;;;28.80;;
75496;SDS011;64074;47.540;19.072;2022-11-20T19:00:31;45.70;;;19.13;;
75496;SDS011;64074;47.540;19.072;2022-11-20T19:03:33;46.67;;;19.92;;
75496;SDS011;64074;47.540;19.072;2022-11-20T19:06:37;51.70;;;21.10;;
75496;SDS011;64074;47.540;19.072;2022-11-20T19:09:42;54.25;;;20.58;;
75496;SDS011;64074;47.540;19.072;2022-11-20T19:12:46;51.70;;;21.30;;